Latest Weather Observations for Griffith

IDN60801

Issued at 5:32 pm EST Sunday 15 September 2019 (issued every 10 minutes, with the page automatically refreshed every 10 minutes)

About weather observations | Map of weather stations | Latest weather observations for NSW | Other Formats
Station Details ID: 075041 Name: GRIFFITH AIRPORT AWS Lat: -34.25 Lon: 146.07 Height: 134.0 m
Data from the previous 72 hours. | See also: Recent months at Griffith
Date/Time
EST
Temp
°C
App
Temp
°C
Dew
Point
°C
Rel
Hum
%
Delta-T
°C
Wind Press
QNH
hPa
Press
MSL
hPa
Rain since
9am
mm
Dir  Spd
km/h
Gust
km/h
Spd
kts
Gust
kts
15/05:30pm 24.1 18.8 -0.9 19 11.3 N 17 24 9 13 1018.5 1018.5 0.0
15/05:00pm 24.6 18.8 -1.3 18 11.6 NNW 19 24 10 13 1018.3 1018.3 0.0
15/04:30pm 25.1 19.7 -1.6 17 12.0 NW 17 30 9 16 1018.4 1018.4 0.0
15/04:00pm 25.4 20.3 -5.0 13 12.8 NW 13 17 7 9 1018.5 1018.5 0.0
15/03:30pm 26.6 20.3 -6.2 11 13.7 WNW 19 24 10 13 1018.4 1018.4 0.0
15/03:00pm 27.3 21.5 -4.6 12 13.8 NNW 17 30 9 16 1018.4 1018.4 0.0
15/02:30pm 27.6 23.0 -4.3 12 13.9 NNW 11 17 6 9 1019.1 1019.1 0.0
15/02:00pm 27.0 22.1 -3.7 13 13.5 W 13 19 7 10 1019.6 1019.6 0.0
15/01:30pm 25.9 21.0 -3.6 14 12.9 W 13 20 7 11 1020.2 1020.2 0.0
15/01:00pm 25.9 21.0 -3.6 14 12.8 WNW 13 22 7 12 1020.8 1020.8 0.0
15/12:30pm 25.0 20.2 -2.5 16 12.2 NW 13 22 7 12 1021.4 1021.4 0.0
15/12:00pm 25.0 19.8 -2.5 16 12.1 NW 15 22 8 12 1021.6 1021.6 0.0
15/11:30am 24.1 19.4 -1.7 18 11.5 NW 13 20 7 11 1022.1 1022.2 0.0
15/11:00am 23.5 18.4 -2.2 18 11.2 NW 15 20 8 11 1022.6 1022.7 0.0
15/10:30am 23.0 18.6 0.2 22 10.4 NNW 13 19 7 10 1022.9 1023.0 0.0
15/10:00am 21.7 16.1 -0.3 23 9.8 NNW 19 26 10 14 1023.0 1023.1 0.0
15/09:30am 21.0 16.5 -0.3 24 9.5 NNW 13 20 7 11 1023.2 1023.3 0.0
15/09:00am 18.0 14.2 1.5 33 7.4 N 11 17 6 9 1023.0 1023.1 0.0
15/08:30am 14.4 12.5 2.6 45 5.3 W 2 7 1 4 1023.7 1023.7 0.0
15/08:00am 10.5 8.8 1.9 55 3.6 CALM 0 0 0 0 1023.3 1023.4 0.0
15/07:30am 8.2 6.0 0.9 60 3.0 S 2 6 1 3 1023.2 1023.3 0.0
15/07:00am 6.0 4.2 1.0 70 2.0 CALM 0 0 0 0 1022.9 1023.0 0.0
15/06:30am 3.5 1.4 -0.7 74 1.6 CALM 0 0 0 0 1022.8 1022.9 0.0
15/06:00am 2.9 0.7 -1.5 73 1.6 CALM 0 0 0 0 1022.9 1023.0 0.0
15/05:30am 3.8 1.8 0.0 76 1.4 CALM 0 0 0 0 1022.6 1022.7 0.0
15/05:00am 3.5 1.3 -1.3 71 1.7 CALM 0 0 0 0 1022.6 1022.7 0.0
15/04:30am 3.8 1.6 -1.4 69 1.9 CALM 0 0 0 0 1022.4 1022.5 0.0
15/04:00am 3.6 1.4 -1.7 68 1.9 CALM 0 0 0 0 1022.4 1022.5 0.0
15/03:30am 3.7 1.5 -1.6 68 1.9 CALM 0 0 0 0 1022.4 1022.5 0.0
15/03:00am 4.0 1.7 -2.0 65 2.1 CALM 0 0 0 0 1022.6 1022.7 0.0
15/02:30am 5.2 3.0 -1.7 61 2.5 CALM 0 0 0 0 1022.7 1022.8 0.0
15/02:00am 4.8 2.6 -1.8 62 2.4 CALM 0 0 0 0 1023.2 1023.3 0.0
15/01:30am 5.6 3.4 -1.5 60 2.6 CALM 0 0 0 0 1023.7 1023.7 0.0
15/01:00am 5.8 3.6 -1.6 59 2.7 CALM 0 0 0 0 1023.9 1023.9 0.0
15/12:30am 5.5 3.3 -1.6 60 2.6 CALM 0 0 0 0 1024.0 1024.0 0.0
15/12:00am 6.3 3.3 -1.8 56 3.0 SW 4 7 2 4 1024.0 1024.0 0.0
 
Date/Time
EST
Temp
°C
App
Temp
°C
Dew
Point
°C
Rel
Hum
%
Delta-T
°C
Wind Press
QNH
hPa
Press
MSL
hPa
Rain since
9am
mm
Dir  Spd
km/h
Gust
km/h
Spd
kts
Gust
kts
14/11:30pm 6.8 4.6 -1.6 55 3.2 CALM 0 0 0 0 1024.3 1024.3 0.0
14/11:00pm 6.8 4.5 -2.1 53 3.3 CALM 0 0 0 0 1024.5 1024.5 0.0
14/10:30pm 8.5 6.3 -1.3 50 3.8 CALM 0 0 0 0 1024.8 1024.8 0.0
14/10:00pm 8.8 6.5 -2.2 46 4.1 CALM 0 0 0 0 1025.1 1025.1 0.0
14/09:30pm 9.8 7.6 -1.9 44 4.5 CALM 0 0 0 0 1025.0 1025.0 0.0
14/09:00pm 10.2 7.8 -2.8 40 4.9 CALM 0 0 0 0 1024.9 1024.9 0.0
14/08:30pm 9.9 7.6 -2.1 43 4.6 CALM 0 0 0 0 1025.0 1025.0 0.0
14/08:00pm 11.2 8.9 -2.2 39 5.2 CALM 0 0 0 0 1024.7 1024.7 0.0
14/07:30pm 10.9 8.7 -1.8 41 5.0 CALM 0 6 0 3 1024.6 1024.6 0.0
14/07:00pm 11.7 8.7 -1.8 39 5.3 SW 4 6 2 3 1024.4 1024.4 0.0
14/06:30pm 14.3 10.8 -2.6 31 6.7 WSW 6 7 3 4 1024.2 1024.2 0.0
14/06:00pm 19.1 15.4 -0.3 27 8.5 W 9 11 5 6 1023.9 1023.9 0.0
14/05:30pm 21.4 16.8 -1.2 22 9.9 WSW 13 17 7 9 1023.6 1023.6 0.0
14/05:00pm 22.3 17.6 -1.7 20 10.5 WSW 13 19 7 10 1023.6 1023.6 0.0
14/04:30pm 22.8 17.8 -1.3 20 10.7 WSW 15 22 8 12 1023.4 1023.5 0.0
14/04:00pm 22.7 18.0 -2.1 19 10.8 WSW 13 20 7 11 1023.4 1023.5 0.0
14/03:30pm 22.6 17.2 -1.5 20 10.6 WSW 17 24 9 13 1023.7 1023.7 0.0
14/03:00pm 22.3 17.3 -1.1 21 10.3 WSW 15 22 8 12 1023.9 1023.9 0.0
14/02:30pm 22.4 16.7 -1.0 21 10.4 W 19 28 10 15 1024.2 1024.2 0.0
14/02:00pm 22.0 16.7 -0.7 22 10.1 WSW 17 24 9 13 1024.4 1024.4 0.0
14/01:30pm 22.1 17.5 -1.2 21 10.3 SSW 13 26 7 14 1024.5 1024.5 0.0
14/01:00pm 20.9 16.5 0.2 25 9.3 WSW 13 20 7 11 1024.9 1024.9 0.0
14/12:30pm 20.1 14.5 0.0 26 8.9 SW 19 26 10 14 1025.4 1025.4 0.0
14/12:00pm 19.8 14.9 1.7 30 8.3 SW 17 28 9 15 1025.7 1025.7 0.0
14/11:30am 18.6 13.4 0.2 29 8.1 SW 17 24 9 13 1025.9 1025.9 0.0
14/11:00am 17.5 13.1 0.6 32 7.4 SSW 13 22 7 12 1026.2 1026.2 0.0
14/10:30am 16.3 12.6 4.7 46 5.5 WSW 13 19 7 10 1026.7 1026.7 0.0
14/10:00am 15.3 11.3 4.7 49 5.0 SSW 15 20 8 11 1027.1 1027.1 0.0
14/09:30am 14.5 10.7 5.6 55 4.2 SSW 15 20 8 11 1027.1 1027.1 0.0
14/09:00am 13.3 9.5 5.9 61 3.5 S 15 24 8 13 1027.0 1027.0 0.0
14/08:30am 12.3 8.6 6.4 67 2.8 SSE 15 19 8 10 1027.0 1027.0 0.0
14/08:00am 10.7 8.1 6.3 74 2.1 SW 9 11 5 6 1026.6 1026.6 0.0
14/07:30am 9.1 6.9 6.2 82 1.3 WSW 7 11 4 6 1026.4 1026.4 0.0
14/07:00am 5.6 3.0 3.3 85 1.0 WSW 6 7 3 4 1026.0 1026.0 0.0
14/06:30am 4.8 2.1 3.5 91 0.5 WNW 7 7 4 4 1025.7 1025.7 0.0
14/06:00am 3.9 2.2 1.8 86 0.8 CALM 0 0 0 0 1025.4 1025.4 0.0
14/05:30am 4.0 1.4 1.2 82 1.1 NW 4 7 2 4 1025.3 1025.3 0.0
14/05:00am 4.9 1.9 1.7 80 1.3 NW 7 9 4 5 1025.0 1025.0 0.0
14/04:30am 5.6 2.8 1.9 77 1.5 NNW 6 7 3 4 1024.8 1024.8 0.0
14/04:00am 6.0 3.2 2.1 76 1.6 NW 6 7 3 4 1024.7 1024.7 0.0
14/03:30am 6.8 3.9 2.5 74 1.8 NNW 7 9 4 5 1024.5 1024.5 0.0
14/03:00am 7.2 4.5 2.7 73 1.9 W 6 9 3 5 1024.5 1024.5 0.0
14/02:30am 5.8 4.1 1.7 75 1.7 CALM 0 0 0 0 1024.4 1024.4 0.0
14/02:00am 5.9 3.8 1.6 74 1.7 N 2 7 1 4 1024.9 1024.9 0.0
14/01:30am 6.0 4.2 1.5 73 1.8 CALM 0 0 0 0 1024.9 1024.9 0.0
14/01:00am 6.4 4.6 1.5 71 2.0 CALM 0 0 0 0 1024.9 1024.9 0.0
14/12:30am 6.4 4.2 0.9 68 2.2 WSW 2 6 1 3 1024.8 1024.8 0.0
14/12:00am 7.1 5.3 1.4 67 2.3 CALM 0 0 0 0 1024.9 1024.9 0.0
 
Date/Time
EST
Temp
°C
App
Temp
°C
Dew
Point
°C
Rel
Hum
%
Delta-T
°C
Wind Press
QNH
hPa
Press
MSL
hPa
Rain since
9am
mm
Dir  Spd
km/h
Gust
km/h
Spd
kts
Gust
kts
13/11:30pm 7.2 5.4 1.1 65 2.5 CALM 0 0 0 0 1025.1 1025.1 0.0
13/11:00pm 7.4 5.6 1.0 64 2.6 CALM 0 0 0 0 1025.0 1025.0 0.0
13/10:30pm 9.0 7.2 1.0 57 3.3 CALM 0 0 0 0 1025.2 1025.2 0.0
13/10:00pm 9.6 7.8 1.3 56 3.5 CALM 0 0 0 0 1025.1 1025.1 0.0
13/09:30pm 10.9 9.0 0.6 49 4.3 CALM 0 0 0 0 1025.0 1025.0 0.0
13/09:00pm 12.1 10.2 0.8 46 4.8 CALM 0 6 0 3 1024.9 1024.9 0.0
13/08:30pm 13.4 9.9 1.4 44 5.2 SSW 9 11 5 6 1025.0 1025.0 0.0
13/08:00pm 12.7 9.7 1.7 47 4.8 SW 7 9 4 5 1024.8 1024.8 0.0
13/07:30pm 12.1 9.2 1.4 48 4.6 SW 6 7 3 4 1024.4 1024.4 0.0
13/07:00pm 14.1 10.3 2.0 44 5.3 SSW 11 13 6 7 1024.2 1024.2 0.0
13/06:30pm 14.9 13.1 1.1 39 6.0 CALM 0 2 0 1 1023.2 1023.3 0.0
13/06:00pm 18.7 15.7 1.7 32 7.7 WSW 7 9 4 5 1023.1 1023.2 0.0
13/05:30pm 20.2 14.7 1.6 29 8.6 SW 20 26 11 14 1023.2 1023.3 0.0
13/05:00pm 21.4 15.0 1.1 26 9.3 WSW 24 30 13 16 1023.3 1023.4 0.0
13/04:30pm 21.9 16.1 2.1 27 9.3 SW 22 28 12 15 1023.0 1023.1 0.0
13/04:00pm 22.3 16.5 2.4 27 9.4 WSW 22 32 12 17 1022.7 1022.8 0.0
13/03:30pm 22.3 16.0 1.3 25 9.8 SW 24 35 13 19 1022.8 1022.9 0.0
13/03:00pm 22.2 16.6 3.3 29 9.1 SW 22 32 12 17 1022.7 1022.8 0.0
13/02:30pm 21.7 17.0 2.9 29 9.0 WSW 17 24 9 13 1022.6 1022.7 0.0
13/02:00pm 21.3 17.4 3.5 31 8.6 WSW 13 20 7 11 1022.8 1022.9 0.0
13/01:30pm 21.2 16.6 3.9 32 8.4 SW 17 26 9 14 1023.3 1023.4 0.0
13/01:00pm 19.9 16.2 4.4 36 7.5 W 13 24 7 13 1023.4 1023.5 0.0
13/12:30pm 20.1 16.4 4.6 36 7.6 W 13 20 7 11 1024.1 1024.1 0.0
13/12:00pm 19.1 15.2 5.2 40 6.8 W 15 24 8 13 1024.5 1024.5 0.0
13/11:30am 18.5 14.4 6.0 44 6.2 WSW 17 24 9 13 1025.0 1025.0 0.0
13/11:00am 17.4 14.3 7.2 51 5.1 SW 13 24 7 13 1025.4 1025.4 0.0
13/10:30am 16.3 12.4 7.0 54 4.6 SW 17 24 9 13 1025.7 1025.7 0.0
13/10:00am 16.1 12.9 6.8 54 4.6 WSW 13 19 7 10 1025.9 1025.9 0.0
13/09:30am 15.8 14.0 7.1 56 4.3 SSE 6 17 3 9 1025.6 1025.6 0.0
13/09:00am 15.0 12.9 6.8 58 4.0 SE 7 13 4 7 1025.5 1025.5 0.0
13/08:30am 13.8 11.6 8.0 68 2.9 ESE 9 13 5 7 1025.1 1025.1 0.0
13/08:00am 12.0 9.5 8.3 78 1.8 E 11 15 6 8 1024.6 1024.6 0.0
13/07:30am 10.5 8.7 8.1 85 1.2 E 7 11 4 6 1024.5 1024.5 0.0
13/07:00am 8.0 4.8 6.9 93 0.5 ESE 13 13 7 7 1024.3 1024.3 0.0
13/06:30am 6.2 1.8 5.0 92 0.5 E 17 19 9 10 1023.7 1023.7 0.0
13/06:00am 6.9 2.3 5.7 92 0.5 ESE 19 20 10 11 1023.7 1023.7 0.0
13/05:30am 6.6 2.4 5.6 93 0.4 ESE 17 17 9 9 1023.6 1023.6 0.0
13/05:00am 5.8 0.7 4.3 90 0.6 ESE 20 20 11 11 1023.1 1023.2 0.0
13/04:30am 7.2 2.5 5.0 86 1.0 SE 19 20 10 11 1023.3 1023.4 0.0
13/04:00am 10.0 6.4 6.9 81 1.5 SE 15 19 8 10 1023.2 1023.3 0.0
13/03:30am 10.5 7.3 7.0 79 1.7 SSE 13 19 7 10 1023.3 1023.4 0.0
13/03:00am 10.9 7.4 7.0 77 1.9 SSE 15 20 8 11 1023.3 1023.4 0.0
13/02:30am 11.0 7.8 6.9 76 2.0 S 13 20 7 11 1023.4 1023.5 0.0
13/02:00am 10.6 7.5 7.1 79 1.7 SSW 13 17 7 9 1023.6 1023.6 0.0
13/01:30am 7.2 4.6 3.4 77 1.6 W 6 7 3 4 1023.6 1023.6 0.0
13/01:00am 8.6 6.0 4.0 73 2.0 WNW 7 9 4 5 1023.6 1023.6 0.0
13/12:30am 8.6 6.1 3.8 72 2.1 W 6 7 3 4 1023.3 1023.4 0.0
13/12:00am 9.0 6.3 3.6 69 2.4 NW 7 9 4 5 1023.3 1023.4 0.0
 
Date/Time
EST
Temp
°C
App
Temp
°C
Dew
Point
°C
Rel
Hum
%
Delta-T
°C
Wind Press
QNH
hPa
Press
MSL
hPa
Rain since
9am
mm
Dir  Spd
km/h
Gust
km/h
Spd
kts
Gust
kts
12/11:30pm 10.2 7.6 3.3 62 3.0 NNW 6 9 3 5 1023.0 1023.1 0.0
12/11:00pm 14.7 10.9 6.0 56 4.2 SSW 15 19 8 10 1022.7 1022.8 0.0
12/10:30pm 15.5 11.3 5.7 52 4.7 S 17 24 9 13 1022.7 1022.8 0.0
12/10:00pm 15.6 11.7 5.5 51 4.9 SSW 15 20 8 11 1022.6 1022.7 0.0
12/09:30pm 16.1 11.8 5.1 48 5.3 SW 17 22 9 12 1022.4 1022.5 0.0
12/09:00pm 16.8 12.0 4.8 45 5.7 SSW 19 24 10 13 1022.1 1022.2 0.0
12/08:30pm 17.3 12.8 4.3 42 6.2 SSW 17 24 9 13 1021.7 1021.7 0.0
12/08:00pm 18.2 13.1 2.9 36 7.1 SW 19 24 10 13 1021.5 1021.5 0.0
12/07:30pm 19.5 12.6 2.4 32 7.9 SW 28 43 15 23 1021.1 1021.1 0.0
12/07:00pm 20.1 13.5 2.0 30 8.4 SW 26 37 14 20 1020.3 1020.3 0.0
12/06:30pm 21.1 13.1 1.4 27 9.1 SW 33 44 18 24 1019.7 1019.7 0.0
12/06:00pm 22.3 14.0 -0.4 22 10.2 SW 33 43 18 23 1018.9 1018.9 0.0

Other formats

Comma delimited format used in spreadsheet applications
http://www.bom.gov.au/fwo/IDN60801/IDN60801.95704.axf

JavaScript Object Notation format (JSON) in row-major order
http://www.bom.gov.au/fwo/IDN60801/IDN60801.95704.json

Data quality

Most of these data are generated automatically and are frequently updated. Quality checks on data are not normally performed. It is possible for incorrect values to appear. Refer to information at About Latest Weather Observations and please check the disclaimer before using these data.